sensor_id;sensor_type;location;lat;lon;timestamp;temperature;humidity
70246;SHT30;57637;49.272;8.590;2022-07-15T00:00:11;18.14;61.65
70246;SHT30;57637;49.272;8.590;2022-07-15T00:02:38;17.97;62.04
70246;SHT30;57637;49.272;8.590;2022-07-15T00:05:04;17.74;62.96
70246;SHT30;57637;49.272;8.590;2022-07-15T00:07:31;17.61;63.57
70246;SHT30;57637;49.272;8.590;2022-07-15T00:09:57;17.56;63.71
70246;SHT30;57637;49.272;8.590;2022-07-15T00:12:41;17.56;63.50
70246;SHT30;57637;49.272;8.590;2022-07-15T00:15:08;17.55;63.45
70246;SHT30;57637;49.272;8.590;2022-07-15T00:17:34;17.52;63.81
70246;SHT30;57637;49.272;8.590;2022-07-15T00:19:59;17.41;63.42
70246;SHT30;57637;49.272;8.590;2022-07-15T00:22:25;17.31;63.49
70246;SHT30;57637;49.272;8.590;2022-07-15T00:24:51;17.20;64.25
70246;SHT30;57637;49.272;8.590;2022-07-15T00:27:16;17.06;64.98
70246;SHT30;57637;49.272;8.590;2022-07-15T00:29:41;16.95;64.21
70246;SHT30;57637;49.272;8.590;2022-07-15T00:32:07;16.84;64.29
70246;SHT30;57637;49.272;8.590;2022-07-15T00:34:32;16.74;64.30
70246;SHT30;57637;49.272;8.590;2022-07-15T00:36:58;16.80;63.89
70246;SHT30;57637;49.272;8.590;2022-07-15T00:39:23;16.88;63.75
70246;SHT30;57637;49.272;8.590;2022-07-15T00:41:48;16.80;63.76
70246;SHT30;57637;49.272;8.590;2022-07-15T00:44:14;16.77;63.28
70246;SHT30;57637;49.272;8.590;2022-07-15T00:46:40;16.72;64.34
70246;SHT30;57637;49.272;8.590;2022-07-15T00:49:06;16.64;64.12
70246;SHT30;57637;49.272;8.590;2022-07-15T00:51:52;16.60;64.15
70246;SHT30;57637;49.272;8.590;2022-07-15T00:54:22;16.46;65.43
70246;SHT30;57637;49.272;8.590;2022-07-15T00:56:52;16.34;66.26
70246;SHT30;57637;49.272;8.590;2022-07-15T00:59:19;16.25;66.64
70246;SHT30;57637;49.272;8.590;2022-07-15T01:01:47;16.19;66.25
70246;SHT30;57637;49.272;8.590;2022-07-15T01:04:13;16.23;66.59
70246;SHT30;57637;49.272;8.590;2022-07-15T01:06:40;16.28;66.24
70246;SHT30;57637;49.272;8.590;2022-07-15T01:09:05;16.26;66.74
70246;SHT30;57637;49.272;8.590;2022-07-15T01:11:31;16.29;66.66
70246;SHT30;57637;49.272;8.590;2022-07-15T01:13:59;16.02;67.96
70246;SHT30;57637;49.272;8.590;2022-07-15T01:16:25;15.94;68.28
70246;SHT30;57637;49.272;8.590;2022-07-15T01:18:51;15.84;68.93
70246;SHT30;57637;49.272;8.590;2022-07-15T01:21:17;15.75;69.39
70246;SHT30;57637;49.272;8.590;2022-07-15T01:23:43;15.62;70.09
70246;SHT30;57637;49.272;8.590;2022-07-15T01:26:09;15.50;70.69
70246;SHT30;57637;49.272;8.590;2022-07-15T01:28:36;15.40;70.81
70246;SHT30;57637;49.272;8.590;2022-07-15T01:31:02;15.37;70.58
70246;SHT30;57637;49.272;8.590;2022-07-15T01:33:28;15.41;70.41
70246;SHT30;57637;49.272;8.590;2022-07-15T01:35:55;15.51;69.40
70246;SHT30;57637;49.272;8.590;2022-07-15T01:38:20;15.61;69.07
70246;SHT30;57637;49.272;8.590;2022-07-15T01:40:46;15.65;68.77
70246;SHT30;57637;49.272;8.590;2022-07-15T01:43:11;15.64;69.29
70246;SHT30;57637;49.272;8.590;2022-07-15T01:45:36;15.54;69.61
70246;SHT30;57637;49.272;8.590;2022-07-15T01:48:02;15.48;69.84
70246;SHT30;57637;49.272;8.590;2022-07-15T01:50:27;15.38;70.72
70246;SHT30;57637;49.272;8.590;2022-07-15T01:52:53;15.36;71.10
70246;SHT30;57637;49.272;8.590;2022-07-15T01:55:18;15.27;71.88
70246;SHT30;57637;49.272;8.590;2022-07-15T01:57:44;15.29;71.39
70246;SHT30;57637;49.272;8.590;2022-07-15T02:00:10;15.20;72.21
70246;SHT30;57637;49.272;8.590;2022-07-15T02:02:37;15.29;71.87
70246;SHT30;57637;49.272;8.590;2022-07-15T02:05:02;15.17;72.26
70246;SHT30;57637;49.272;8.590;2022-07-15T02:07:28;15.22;73.14
70246;SHT30;57637;49.272;8.590;2022-07-15T02:09:53;15.17;72.47
70246;SHT30;57637;49.272;8.590;2022-07-15T02:12:19;15.11;72.13
70246;SHT30;57637;49.272;8.590;2022-07-15T02:14:44;14.90;72.30
70246;SHT30;57637;49.272;8.590;2022-07-15T02:17:10;14.80;72.82
70246;SHT30;57637;49.272;8.590;2022-07-15T02:19:35;14.76;72.74
70246;SHT30;57637;49.272;8.590;2022-07-15T02:22:00;14.68;72.64
70246;SHT30;57637;49.272;8.590;2022-07-15T02:24:26;14.78;72.16
70246;SHT30;57637;49.272;8.590;2022-07-15T02:26:51;14.76;73.04
70246;SHT30;57637;49.272;8.590;2022-07-15T02:29:17;14.75;73.38
70246;SHT30;57637;49.272;8.590;2022-07-15T02:31:43;14.78;73.31
70246;SHT30;57637;49.272;8.590;2022-07-15T02:34:09;14.76;73.04
70246;SHT30;57637;49.272;8.590;2022-07-15T02:36:34;14.71;72.62
70246;SHT30;57637;49.272;8.590;2022-07-15T02:39:02;14.62;73.06
70246;SHT30;57637;49.272;8.590;2022-07-15T02:41:28;14.49;75.95
70246;SHT30;57637;49.272;8.590;2022-07-15T02:43:54;14.38;76.35
70246;SHT30;57637;49.272;8.590;2022-07-15T02:46:19;14.32;75.93
70246;SHT30;57637;49.272;8.590;2022-07-15T02:48:45;14.35;75.65
70246;SHT30;57637;49.272;8.590;2022-07-15T02:51:11;14.44;74.73
70246;SHT30;57637;49.272;8.590;2022-07-15T02:53:36;14.39;74.91
70246;SHT30;57637;49.272;8.590;2022-07-15T02:56:02;14.26;74.00
70246;SHT30;57637;49.272;8.590;2022-07-15T02:58:29;14.15;73.92
70246;SHT30;57637;49.272;8.590;2022-07-15T03:00:55;14.11;74.08
70246;SHT30;57637;49.272;8.590;2022-07-15T03:03:22;13.95;75.06
70246;SHT30;57637;49.272;8.590;2022-07-15T03:05:48;13.85;75.42
70246;SHT30;57637;49.272;8.590;2022-07-15T03:08:14;13.74;76.25
70246;SHT30;57637;49.272;8.590;2022-07-15T03:10:40;13.80;76.31
70246;SHT30;57637;49.272;8.590;2022-07-15T03:13:05;13.84;76.26
70246;SHT30;57637;49.272;8.590;2022-07-15T03:15:30;13.97;75.76
70246;SHT30;57637;49.272;8.590;2022-07-15T03:17:56;14.01;75.16
70246;SHT30;57637;49.272;8.590;2022-07-15T03:20:21;14.03;75.23
70246;SHT30;57637;49.272;8.590;2022-07-15T03:22:47;14.03;75.01
70246;SHT30;57637;49.272;8.590;2022-07-15T03:25:12;13.94;75.82
70246;SHT30;57637;49.272;8.590;2022-07-15T03:27:38;13.85;76.58
70246;SHT30;57637;49.272;8.590;2022-07-15T03:30:03;13.75;76.94
70246;SHT30;57637;49.272;8.590;2022-07-15T03:32:29;13.67;77.52
70246;SHT30;57637;49.272;8.590;2022-07-15T03:34:54;13.60;77.82
70246;SHT30;57637;49.272;8.590;2022-07-15T03:37:22;13.56;78.04
70246;SHT30;57637;49.272;8.590;2022-07-15T03:39:47;13.44;78.03
70246;SHT30;57637;49.272;8.590;2022-07-15T03:42:13;13.43;78.10
70246;SHT30;57637;49.272;8.590;2022-07-15T03:44:38;13.52;77.63
70246;SHT30;57637;49.272;8.590;2022-07-15T03:47:03;13.64;77.03
70246;SHT30;57637;49.272;8.590;2022-07-15T03:49:29;13.69;75.98
70246;SHT30;57637;49.272;8.590;2022-07-15T03:51:54;13.64;76.41
70246;SHT30;57637;49.272;8.590;2022-07-15T03:54:20;13.54;76.81
70246;SHT30;57637;49.272;8.590;2022-07-15T03:56:45;13.30;78.93
70246;SHT30;57637;49.272;8.590;2022-07-15T03:59:13;13.27;79.57
70246;SHT30;57637;49.272;8.590;2022-07-15T04:01:42;13.50;78.50
70246;SHT30;57637;49.272;8.590;2022-07-15T04:04:07;13.97;77.45
70246;SHT30;57637;49.272;8.590;2022-07-15T04:06:34;14.28;75.85
70246;SHT30;57637;49.272;8.590;2022-07-15T04:08:59;14.42;75.95
70246;SHT30;57637;49.272;8.590;2022-07-15T04:11:25;14.85;74.55
70246;SHT30;57637;49.272;8.590;2022-07-15T04:13:50;14.56;75.15
70246;SHT30;57637;49.272;8.590;2022-07-15T04:16:16;14.66;74.22
70246;SHT30;57637;49.272;8.590;2022-07-15T04:18:41;14.56;74.34
70246;SHT30;57637;49.272;8.590;2022-07-15T04:21:07;14.79;73.66
70246;SHT30;57637;49.272;8.590;2022-07-15T04:23:32;14.64;74.62
70246;SHT30;57637;49.272;8.590;2022-07-15T04:25:57;14.78;75.00
70246;SHT30;57637;49.272;8.590;2022-07-15T04:28:23;15.48;73.97
70246;SHT30;57637;49.272;8.590;2022-07-15T04:30:50;15.62;72.19
70246;SHT30;57637;49.272;8.590;2022-07-15T04:33:16;16.16;71.65
70246;SHT30;57637;49.272;8.590;2022-07-15T04:35:42;15.50;73.08
70246;SHT30;57637;49.272;8.590;2022-07-15T04:38:08;15.68;74.12
70246;SHT30;57637;49.272;8.590;2022-07-15T04:40:33;15.97;71.51
70246;SHT30;57637;49.272;8.590;2022-07-15T04:42:59;16.18;70.62
70246;SHT30;57637;49.272;8.590;2022-07-15T04:45:26;16.29;68.80
70246;SHT30;57637;49.272;8.590;2022-07-15T04:47:52;16.49;68.43
70246;SHT30;57637;49.272;8.590;2022-07-15T04:50:18;16.64;67.33
70246;SHT30;57637;49.272;8.590;2022-07-15T04:53:02;16.64;66.50
70246;SHT30;57637;49.272;8.590;2022-07-15T04:55:29;16.72;65.96
70246;SHT30;57637;49.272;8.590;2022-07-15T04:57:55;16.87;67.34
70246;SHT30;57637;49.272;8.590;2022-07-15T05:00:20;17.37;67.56
70246;SHT30;57637;49.272;8.590;2022-07-15T05:02:46;17.45;63.90
70246;SHT30;57637;49.272;8.590;2022-07-15T05:05:11;17.64;64.03
70246;SHT30;57637;49.272;8.590;2022-07-15T05:07:37;17.93;62.13
70246;SHT30;57637;49.272;8.590;2022-07-15T05:10:03;18.13;61.72
70246;SHT30;57637;49.272;8.590;2022-07-15T05:12:30;18.22;61.48
70246;SHT30;57637;49.272;8.590;2022-07-15T05:14:55;18.10;61.93
70246;SHT30;57637;49.272;8.590;2022-07-15T05:17:20;18.23;60.98
70246;SHT30;57637;49.272;8.590;2022-07-15T05:19:46;18.14;60.19
70246;SHT30;57637;49.272;8.590;2022-07-15T05:22:11;18.20;60.80
70246;SHT30;57637;49.272;8.590;2022-07-15T05:24:37;17.92;61.08
70246;SHT30;57637;49.272;8.590;2022-07-15T05:27:02;18.19;60.79
70246;SHT30;57637;49.272;8.590;2022-07-15T05:29:28;18.39;60.56
70246;SHT30;57637;49.272;8.590;2022-07-15T05:31:53;18.56;59.82
70246;SHT30;57637;49.272;8.590;2022-07-15T05:34:19;18.47;58.32
70246;SHT30;57637;49.272;8.590;2022-07-15T05:36:45;18.43;57.80
70246;SHT30;57637;49.272;8.590;2022-07-15T05:39:10;18.22;58.11
70246;SHT30;57637;49.272;8.590;2022-07-15T05:41:36;18.07;59.03
70246;SHT30;57637;49.272;8.590;2022-07-15T05:44:02;18.43;57.89
70246;SHT30;57637;49.272;8.590;2022-07-15T05:46:28;18.83;57.27
70246;SHT30;57637;49.272;8.590;2022-07-15T05:48:53;19.05;56.84
70246;SHT30;57637;49.272;8.590;2022-07-15T05:51:19;19.26;55.39
70246;SHT30;57637;49.272;8.590;2022-07-15T05:53:44;18.68;56.86
70246;SHT30;57637;49.272;8.590;2022-07-15T05:56:10;19.16;56.18
70246;SHT30;57637;49.272;8.590;2022-07-15T05:58:35;19.23;56.50
70246;SHT30;57637;49.272;8.590;2022-07-15T06:01:01;19.18;56.12
70246;SHT30;57637;49.272;8.590;2022-07-15T06:03:27;19.43;55.30
70246;SHT30;57637;49.272;8.590;2022-07-15T06:05:52;19.42;55.05
70246;SHT30;57637;49.272;8.590;2022-07-15T06:08:17;19.93;53.95
70246;SHT30;57637;49.272;8.590;2022-07-15T06:10:43;19.48;55.45
70246;SHT30;57637;49.272;8.590;2022-07-15T06:13:09;19.84;54.89
70246;SHT30;57637;49.272;8.590;2022-07-15T06:15:35;20.13;54.05
70246;SHT30;57637;49.272;8.590;2022-07-15T06:18:01;20.31;53.15
70246;SHT30;57637;49.272;8.590;2022-07-15T06:20:27;20.45;53.21
70246;SHT30;57637;49.272;8.590;2022-07-15T06:22:53;20.43;53.47
70246;SHT30;57637;49.272;8.590;2022-07-15T06:25:19;20.54;52.69
70246;SHT30;57637;49.272;8.590;2022-07-15T06:27:44;20.54;52.72
70246;SHT30;57637;49.272;8.590;2022-07-15T06:30:10;20.57;53.13
70246;SHT30;57637;49.272;8.590;2022-07-15T06:32:36;20.69;51.91
70246;SHT30;57637;49.272;8.590;2022-07-15T06:35:02;20.59;52.24
70246;SHT30;57637;49.272;8.590;2022-07-15T06:37:27;21.03;51.80
70246;SHT30;57637;49.272;8.590;2022-07-15T06:39:53;21.03;50.18
70246;SHT30;57637;49.272;8.590;2022-07-15T06:42:21;21.03;51.55
70246;SHT30;57637;49.272;8.590;2022-07-15T06:44:47;21.15;50.78
70246;SHT30;57637;49.272;8.590;2022-07-15T06:47:12;21.13;50.75
70246;SHT30;57637;49.272;8.590;2022-07-15T06:49:38;21.76;49.99
70246;SHT30;57637;49.272;8.590;2022-07-15T06:52:04;21.54;50.08
70246;SHT30;57637;49.272;8.590;2022-07-15T06:54:30;21.84;48.80
70246;SHT30;57637;49.272;8.590;2022-07-15T06:56:56;21.19;50.31
70246;SHT30;57637;49.272;8.590;2022-07-15T06:59:23;21.30;47.80
70246;SHT30;57637;49.272;8.590;2022-07-15T07:01:48;21.39;48.65
70246;SHT30;57637;49.272;8.590;2022-07-15T07:04:13;21.30;47.38
70246;SHT30;57637;49.272;8.590;2022-07-15T07:06:39;21.76;46.72
70246;SHT30;57637;49.272;8.590;2022-07-15T07:09:04;21.63;46.87
70246;SHT30;57637;49.272;8.590;2022-07-15T07:11:30;21.49;47.11
70246;SHT30;57637;49.272;8.590;2022-07-15T07:13:57;22.02;46.53
70246;SHT30;57637;49.272;8.590;2022-07-15T07:16:24;22.20;46.22
70246;SHT30;57637;49.272;8.590;2022-07-15T07:18:50;22.21;46.44
70246;SHT30;57637;49.272;8.590;2022-07-15T07:21:16;22.34;46.85
70246;SHT30;57637;49.272;8.590;2022-07-15T07:23:42;22.37;46.01
70246;SHT30;57637;49.272;8.590;2022-07-15T07:26:08;22.05;47.16
70246;SHT30;57637;49.272;8.590;2022-07-15T07:28:35;21.84;47.66
70246;SHT30;57637;49.272;8.590;2022-07-15T07:31:01;22.11;45.80
70246;SHT30;57637;49.272;8.590;2022-07-15T07:33:27;21.88;46.09
70246;SHT30;57637;49.272;8.590;2022-07-15T07:35:53;21.91;46.62
70246;SHT30;57637;49.272;8.590;2022-07-15T07:38:18;22.25;44.88
70246;SHT30;57637;49.272;8.590;2022-07-15T07:40:45;22.55;45.06
70246;SHT30;57637;49.272;8.590;2022-07-15T07:43:13;22.79;44.54
70246;SHT30;57637;49.272;8.590;2022-07-15T07:45:43;22.31;45.50
70246;SHT30;57637;49.272;8.590;2022-07-15T07:48:08;22.41;44.70
70246;SHT30;57637;49.272;8.590;2022-07-15T07:50:34;22.37;45.29
70246;SHT30;57637;49.272;8.590;2022-07-15T07:52:59;22.85;44.23
70246;SHT30;57637;49.272;8.590;2022-07-15T07:55:25;22.95;43.74
70246;SHT30;57637;49.272;8.590;2022-07-15T07:57:51;22.72;43.59
70246;SHT30;57637;49.272;8.590;2022-07-15T08:00:19;22.61;44.02
70246;SHT30;57637;49.272;8.590;2022-07-15T08:02:45;22.45;44.27
70246;SHT30;57637;49.272;8.590;2022-07-15T08:05:11;22.75;43.61
70246;SHT30;57637;49.272;8.590;2022-07-15T08:07:37;22.47;43.94
70246;SHT30;57637;49.272;8.590;2022-07-15T08:10:03;22.73;43.98
70246;SHT30;57637;49.272;8.590;2022-07-15T08:12:30;22.88;43.70
70246;SHT30;57637;49.272;8.590;2022-07-15T08:14:55;22.69;43.94
70246;SHT30;57637;49.272;8.590;2022-07-15T08:17:21;22.65;44.23
70246;SHT30;57637;49.272;8.590;2022-07-15T08:19:47;22.86;44.01
70246;SHT30;57637;49.272;8.590;2022-07-15T08:22:13;22.34;44.14
70246;SHT30;57637;49.272;8.590;2022-07-15T08:24:39;22.66;44.10
70246;SHT30;57637;49.272;8.590;2022-07-15T08:27:05;22.44;44.08
70246;SHT30;57637;49.272;8.590;2022-07-15T08:29:30;22.55;43.84
70246;SHT30;57637;49.272;8.590;2022-07-15T08:31:56;22.68;43.72
70246;SHT30;57637;49.272;8.590;2022-07-15T08:34:21;22.37;44.30
70246;SHT30;57637;49.272;8.590;2022-07-15T08:36:46;22.81;43.29
70246;SHT30;57637;49.272;8.590;2022-07-15T08:39:12;23.00;43.40
70246;SHT30;57637;49.272;8.590;2022-07-15T08:41:37;23.37;42.65
70246;SHT30;57637;49.272;8.590;2022-07-15T08:44:04;23.03;42.13
70246;SHT30;57637;49.272;8.590;2022-07-15T08:46:30;23.12;43.31
70246;SHT30;57637;49.272;8.590;2022-07-15T08:48:58;23.42;41.97
70246;SHT30;57637;49.272;8.590;2022-07-15T08:51:30;23.00;41.60
70246;SHT30;57637;49.272;8.590;2022-07-15T08:53:57;22.99;41.93
70246;SHT30;57637;49.272;8.590;2022-07-15T08:56:23;23.10;42.78
70246;SHT30;57637;49.272;8.590;2022-07-15T08:58:49;23.09;42.58
70246;SHT30;57637;49.272;8.590;2022-07-15T09:01:14;23.33;42.15
70246;SHT30;57637;49.272;8.590;2022-07-15T09:03:41;23.12;41.79
70246;SHT30;57637;49.272;8.590;2022-07-15T09:06:06;23.03;40.62
70246;SHT30;57637;49.272;8.590;2022-07-15T09:08:32;23.40;41.22
70246;SHT30;57637;49.272;8.590;2022-07-15T09:11:00;23.65;40.95
70246;SHT30;57637;49.272;8.590;2022-07-15T09:13:36;23.74;41.32
70246;SHT30;57637;49.272;8.590;2022-07-15T09:16:07;24.16;41.32
70246;SHT30;57637;49.272;8.590;2022-07-15T09:18:35;24.65;40.07
70246;SHT30;57637;49.272;8.590;2022-07-15T09:21:19;23.60;41.57
70246;SHT30;57637;49.272;8.590;2022-07-15T09:23:45;24.11;39.85
70246;SHT30;57637;49.272;8.590;2022-07-15T09:28:57;24.67;40.08
70246;SHT30;57637;49.272;8.590;2022-07-15T09:31:28;24.91;39.64
70246;SHT30;57637;49.272;8.590;2022-07-15T09:34:12;24.94;38.43
70246;SHT30;57637;49.272;8.590;2022-07-15T09:36:38;24.87;38.68
70246;SHT30;57637;49.272;8.590;2022-07-15T09:39:07;24.65;38.68
70246;SHT30;57637;49.272;8.590;2022-07-15T09:41:37;24.04;41.40
70246;SHT30;57637;49.272;8.590;2022-07-15T09:44:13;24.46;42.03
70246;SHT30;57637;49.272;8.590;2022-07-15T09:46:48;24.87;40.88
70246;SHT30;57637;49.272;8.590;2022-07-15T09:49:36;24.70;40.51
70246;SHT30;57637;49.272;8.590;2022-07-15T09:52:10;24.39;40.93
70246;SHT30;57637;49.272;8.590;2022-07-15T09:57:04;23.77;41.84
70246;SHT30;57637;49.272;8.590;2022-07-15T09:59:31;24.25;41.24
70246;SHT30;57637;49.272;8.590;2022-07-15T10:01:57;23.82;42.37
70246;SHT30;57637;49.272;8.590;2022-07-15T10:04:24;23.93;41.43
70246;SHT30;57637;49.272;8.590;2022-07-15T10:06:52;24.15;40.99
70246;SHT30;57637;49.272;8.590;2022-07-15T10:09:20;24.00;40.54
70246;SHT30;57637;49.272;8.590;2022-07-15T10:11:48;23.86;41.90
70246;SHT30;57637;49.272;8.590;2022-07-15T10:19:49;24.24;41.63
70246;SHT30;57637;49.272;8.590;2022-07-15T10:25:08;24.52;41.82
70246;SHT30;57637;49.272;8.590;2022-07-15T10:30:20;24.08;41.65
70246;SHT30;57637;49.272;8.590;2022-07-15T10:38:24;24.57;41.26
70246;SHT30;57637;49.272;8.590;2022-07-15T10:40:58;24.29;40.48
70246;SHT30;57637;49.272;8.590;2022-07-15T10:43:41;24.06;40.74
70246;SHT30;57637;49.272;8.590;2022-07-15T10:48:43;23.97;41.08
70246;SHT30;57637;49.272;8.590;2022-07-15T10:51:09;24.29;40.19
70246;SHT30;57637;49.272;8.590;2022-07-15T10:53:42;24.30;40.34
70246;SHT30;57637;49.272;8.590;2022-07-15T10:56:29;24.48;40.37
70246;SHT30;57637;49.272;8.590;2022-07-15T10:59:11;24.55;39.58
70246;SHT30;57637;49.272;8.590;2022-07-15T11:01:40;24.52;40.48
70246;SHT30;57637;49.272;8.590;2022-07-15T11:04:21;24.96;39.93
70246;SHT30;57637;49.272;8.590;2022-07-15T11:09:48;24.24;42.00
70246;SHT30;57637;49.272;8.590;2022-07-15T11:12:17;24.42;40.41
70246;SHT30;57637;49.272;8.590;2022-07-15T11:14:53;24.35;40.43
70246;SHT30;57637;49.272;8.590;2022-07-15T11:19:54;24.94;41.27
70246;SHT30;57637;49.272;8.590;2022-07-15T11:22:20;25.52;39.72
70246;SHT30;57637;49.272;8.590;2022-07-15T11:24:47;25.20;39.11
70246;SHT30;57637;49.272;8.590;2022-07-15T11:27:13;25.04;39.54
70246;SHT30;57637;49.272;8.590;2022-07-15T11:29:40;25.23;39.48
70246;SHT30;57637;49.272;8.590;2022-07-15T11:32:13;25.18;38.83
70246;SHT30;57637;49.272;8.590;2022-07-15T11:34:44;25.08;38.49
70246;SHT30;57637;49.272;8.590;2022-07-15T11:37:12;25.06;38.33
70246;SHT30;57637;49.272;8.590;2022-07-15T11:39:44;25.44;39.09
70246;SHT30;57637;49.272;8.590;2022-07-15T11:42:30;24.82;39.30
70246;SHT30;57637;49.272;8.590;2022-07-15T11:45:15;24.46;40.14
70246;SHT30;57637;49.272;8.590;2022-07-15T11:47:56;24.69;40.23
70246;SHT30;57637;49.272;8.590;2022-07-15T11:50:22;24.49;39.95
70246;SHT30;57637;49.272;8.590;2022-07-15T11:52:47;24.56;38.86
70246;SHT30;57637;49.272;8.590;2022-07-15T11:55:15;24.59;40.03
70246;SHT30;57637;49.272;8.590;2022-07-15T11:57:44;25.11;38.86
70246;SHT30;57637;49.272;8.590;2022-07-15T12:00:12;24.98;37.53
70246;SHT30;57637;49.272;8.590;2022-07-15T12:02:38;25.14;38.28
70246;SHT30;57637;49.272;8.590;2022-07-15T12:05:04;24.86;38.93
70246;SHT30;57637;49.272;8.590;2022-07-15T12:07:38;25.45;39.07
70246;SHT30;57637;49.272;8.590;2022-07-15T12:10:08;25.77;37.79
70246;SHT30;57637;49.272;8.590;2022-07-15T12:12:34;25.69;37.69
70246;SHT30;57637;49.272;8.590;2022-07-15T12:15:05;25.92;38.41
70246;SHT30;57637;49.272;8.590;2022-07-15T12:17:31;25.82;38.31
70246;SHT30;57637;49.272;8.590;2022-07-15T12:19:56;26.05;37.34
70246;SHT30;57637;49.272;8.590;2022-07-15T12:22:26;25.86;37.11
70246;SHT30;57637;49.272;8.590;2022-07-15T12:24:51;26.36;36.25
70246;SHT30;57637;49.272;8.590;2022-07-15T12:27:18;25.95;36.29
70246;SHT30;57637;49.272;8.590;2022-07-15T12:30:04;25.86;36.89
70246;SHT30;57637;49.272;8.590;2022-07-15T12:32:31;26.46;36.29
70246;SHT30;57637;49.272;8.590;2022-07-15T12:34:57;26.71;35.92
70246;SHT30;57637;49.272;8.590;2022-07-15T12:37:26;26.71;35.86
70246;SHT30;57637;49.272;8.590;2022-07-15T12:40:02;26.08;35.81
70246;SHT30;57637;49.272;8.590;2022-07-15T12:42:31;26.33;35.55
70246;SHT30;57637;49.272;8.590;2022-07-15T12:47:34;25.85;37.26
70246;SHT30;57637;49.272;8.590;2022-07-15T12:50:00;26.43;36.90
70246;SHT30;57637;49.272;8.590;2022-07-15T12:55:21;26.22;35.93
70246;SHT30;57637;49.272;8.590;2022-07-15T12:58:01;26.25;36.81
70246;SHT30;57637;49.272;8.590;2022-07-15T13:00:30;25.71;36.34
70246;SHT30;57637;49.272;8.590;2022-07-15T13:05:32;25.20;37.06
70246;SHT30;57637;49.272;8.590;2022-07-15T13:08:02;25.35;36.22
70246;SHT30;57637;49.272;8.590;2022-07-15T13:10:28;25.88;36.94
70246;SHT30;57637;49.272;8.590;2022-07-15T13:12:54;25.93;36.34
70246;SHT30;57637;49.272;8.590;2022-07-15T13:15:20;25.81;36.36
70246;SHT30;57637;49.272;8.590;2022-07-15T13:17:45;25.57;38.73
70246;SHT30;57637;49.272;8.590;2022-07-15T13:20:11;24.90;39.06
70246;SHT30;57637;49.272;8.590;2022-07-15T13:22:38;25.30;38.53
70246;SHT30;57637;49.272;8.590;2022-07-15T13:25:06;25.55;38.75
70246;SHT30;57637;49.272;8.590;2022-07-15T13:27:32;25.74;38.11
70246;SHT30;57637;49.272;8.590;2022-07-15T13:29:57;25.75;37.07
70246;SHT30;57637;49.272;8.590;2022-07-15T13:32:24;25.82;38.78
70246;SHT30;57637;49.272;8.590;2022-07-15T13:34:51;25.68;37.53
70246;SHT30;57637;49.272;8.590;2022-07-15T13:37:17;25.51;37.15
70246;SHT30;57637;49.272;8.590;2022-07-15T13:39:42;25.49;37.33
70246;SHT30;57637;49.272;8.590;2022-07-15T13:42:08;25.42;36.86
70246;SHT30;57637;49.272;8.590;2022-07-15T13:44:33;25.52;37.02
70246;SHT30;57637;49.272;8.590;2022-07-15T13:46:58;25.42;36.55
70246;SHT30;57637;49.272;8.590;2022-07-15T13:49:24;25.58;36.82
70246;SHT30;57637;49.272;8.590;2022-07-15T13:52:09;25.69;35.83
70246;SHT30;57637;49.272;8.590;2022-07-15T13:54:35;25.75;36.13
70246;SHT30;57637;49.272;8.590;2022-07-15T13:57:00;25.86;38.25
70246;SHT30;57637;49.272;8.590;2022-07-15T13:59:26;25.11;39.39
70246;SHT30;57637;49.272;8.590;2022-07-15T14:01:52;25.47;38.98
70246;SHT30;57637;49.272;8.590;2022-07-15T14:04:18;26.03;38.07
70246;SHT30;57637;49.272;8.590;2022-07-15T14:06:44;25.26;39.92
70246;SHT30;57637;49.272;8.590;2022-07-15T14:09:10;25.13;39.52
70246;SHT30;57637;49.272;8.590;2022-07-15T14:11:38;25.10;40.91
70246;SHT30;57637;49.272;8.590;2022-07-15T14:14:04;25.21;40.10
70246;SHT30;57637;49.272;8.590;2022-07-15T14:16:29;24.80;40.08
70246;SHT30;57637;49.272;8.590;2022-07-15T14:18:54;24.88;40.03
70246;SHT30;57637;49.272;8.590;2022-07-15T14:21:20;24.73;40.39
70246;SHT30;57637;49.272;8.590;2022-07-15T14:23:46;24.83;39.73
70246;SHT30;57637;49.272;8.590;2022-07-15T14:26:14;24.60;40.07
70246;SHT30;57637;49.272;8.590;2022-07-15T14:28:40;24.75;40.05
70246;SHT30;57637;49.272;8.590;2022-07-15T14:31:07;24.91;39.08
70246;SHT30;57637;49.272;8.590;2022-07-15T14:33:33;25.07;38.18
70246;SHT30;57637;49.272;8.590;2022-07-15T14:35:59;25.14;38.19
70246;SHT30;57637;49.272;8.590;2022-07-15T14:38:25;25.02;38.19
70246;SHT30;57637;49.272;8.590;2022-07-15T14:40:51;25.17;38.22
70246;SHT30;57637;49.272;8.590;2022-07-15T14:43:17;25.52;37.53
70246;SHT30;57637;49.272;8.590;2022-07-15T14:45:42;25.28;37.64
70246;SHT30;57637;49.272;8.590;2022-07-15T14:48:08;25.35;38.64
70246;SHT30;57637;49.272;8.590;2022-07-15T14:50:35;25.75;38.37
70246;SHT30;57637;49.272;8.590;2022-07-15T14:53:01;25.72;37.78
70246;SHT30;57637;49.272;8.590;2022-07-15T14:55:26;25.52;38.21
70246;SHT30;57637;49.272;8.590;2022-07-15T14:57:52;25.52;37.88
70246;SHT30;57637;49.272;8.590;2022-07-15T15:00:17;25.67;37.95
70246;SHT30;57637;49.272;8.590;2022-07-15T15:02:43;25.82;37.42
70246;SHT30;57637;49.272;8.590;2022-07-15T15:05:09;25.40;37.92
70246;SHT30;57637;49.272;8.590;2022-07-15T15:07:34;25.54;38.24
70246;SHT30;57637;49.272;8.590;2022-07-15T15:10:00;24.65;38.52
70246;SHT30;57637;49.272;8.590;2022-07-15T15:12:25;24.84;38.79
70246;SHT30;57637;49.272;8.590;2022-07-15T15:14:51;25.17;37.88
70246;SHT30;57637;49.272;8.590;2022-07-15T15:17:16;25.23;38.32
70246;SHT30;57637;49.272;8.590;2022-07-15T15:19:42;25.49;37.70
70246;SHT30;57637;49.272;8.590;2022-07-15T15:22:07;25.31;37.75
70246;SHT30;57637;49.272;8.590;2022-07-15T15:24:33;25.03;38.07
70246;SHT30;57637;49.272;8.590;2022-07-15T15:26:59;24.80;38.51
70246;SHT30;57637;49.272;8.590;2022-07-15T15:29:26;25.35;38.68
70246;SHT30;57637;49.272;8.590;2022-07-15T15:31:52;25.48;38.00
70246;SHT30;57637;49.272;8.590;2022-07-15T15:34:18;25.84;38.40
70246;SHT30;57637;49.272;8.590;2022-07-15T15:36:44;26.05;37.60
70246;SHT30;57637;49.272;8.590;2022-07-15T15:39:10;25.85;37.09
70246;SHT30;57637;49.272;8.590;2022-07-15T15:41:35;25.37;36.63
70246;SHT30;57637;49.272;8.590;2022-07-15T15:44:02;24.98;37.21
70246;SHT30;57637;49.272;8.590;2022-07-15T15:46:27;25.04;37.82
70246;SHT30;57637;49.272;8.590;2022-07-15T15:48:53;25.08;37.90
70246;SHT30;57637;49.272;8.590;2022-07-15T15:51:18;25.41;37.95
70246;SHT30;57637;49.272;8.590;2022-07-15T15:53:43;25.23;38.42
70246;SHT30;57637;49.272;8.590;2022-07-15T15:56:09;25.04;37.50
70246;SHT30;57637;49.272;8.590;2022-07-15T15:58:34;24.77;37.51
70246;SHT30;57637;49.272;8.590;2022-07-15T16:00:59;24.57;37.53
70246;SHT30;57637;49.272;8.590;2022-07-15T16:03:25;24.66;37.44
70246;SHT30;57637;49.272;8.590;2022-07-15T16:05:51;24.67;37.90